FDX1150 KTUL-KMEM
Flight info
| Callsign | FDX1150 |
|---|---|
| Flight time | 0h 25m |
| Altitude | 37000 |
| Route | MAYJI FSM LITTR HOBRK4 |
| Aircraft | B738/M-SDE2E3FGHIRWXY/LB1 |
Departure
| Time | 2026-05-03 20:21 |
|---|---|
| Airport | Tulsa International Airport (KTUL) |
Arrival
| Time | 2026-05-03 20:46 |
|---|---|
| Airport | Memphis International Airport (KMEM) |
| Time | Latitude | Longitude | Altitude | Speed | Heading |
|---|---|---|---|---|---|
| 2026-05-03 20:15 | 36.20590 | -95.87672 | 642 ft | 0 kts | 135° |
| 2026-05-03 20:17 | 36.20591 | -95.87640 | 641 ft | 9 kts | 73° |
| 2026-05-03 20:17 | 36.20631 | -95.87604 | 640 ft | 7 kts | 3° |
| 2026-05-03 20:18 | 36.20674 | -95.87641 | 639 ft | 15 kts | 304° |
| 2026-05-03 20:18 | 36.20704 | -95.87760 | 641 ft | 14 kts | 285° |
| 2026-05-03 20:18 | 36.20749 | -95.87885 | 640 ft | 19 kts | 306° |
| 2026-05-03 20:18 | 36.20901 | -95.87916 | 637 ft | 29 kts | 4° |
| 2026-05-03 20:19 | 36.21105 | -95.87900 | 635 ft | 30 kts | 2° |
| 2026-05-03 20:19 | 36.21302 | -95.87892 | 636 ft | 28 kts | 1° |
| 2026-05-03 20:19 | 36.21380 | -95.87930 | 635 ft | 9 kts | 284° |
| 2026-05-03 20:19 | 36.21378 | -95.88044 | 644 ft | 19 kts | 279° |
| 2026-05-03 20:20 | 36.21354 | -95.88136 | 639 ft | 8 kts | 205° |
| 2026-05-03 20:20 | 36.21203 | -95.88146 | 640 ft | 53 kts | 183° |
| 2026-05-03 20:20 | 36.20587 | -95.88188 | 641 ft | 121 kts | 182° |
| 2026-05-03 20:20 | 36.19624 | -95.88255 | 897 ft | 153 kts | 187° |
| 2026-05-03 20:21 | 36.18467 | -95.88280 | 1350 ft | 182 kts | 175° |
| 2026-05-03 20:21 | 36.17400 | -95.87431 | 2180 ft | 193 kts | 125° |
| 2026-05-03 20:21 | 36.17012 | -95.85804 | 3021 ft | 208 kts | 105° |
| 2026-05-03 20:21 | 36.16771 | -95.83933 | 3291 ft | 237 kts | 102° |
| 2026-05-03 20:22 | 36.16509 | -95.81831 | 3641 ft | 254 kts | 103° |
| 2026-05-03 20:22 | 36.16205 | -95.79551 | 3974 ft | 280 kts | 102° |
| 2026-05-03 20:22 | 36.15863 | -95.77131 | 4676 ft | 290 kts | 102° |
| 2026-05-03 20:22 | 36.15490 | -95.74659 | 5514 ft | 292 kts | 103° |
| 2026-05-03 20:23 | 36.15100 | -95.72201 | 6436 ft | 292 kts | 103° |
| 2026-05-03 20:23 | 36.14692 | -95.69721 | 7220 ft | 296 kts | 103° |
| 2026-05-03 20:23 | 36.14269 | -95.67214 | 8025 ft | 299 kts | 103° |
| 2026-05-03 20:23 | 36.13832 | -95.64679 | 8855 ft | 303 kts | 103° |
| 2026-05-03 20:24 | 36.13385 | -95.62116 | 9717 ft | 306 kts | 103° |
| 2026-05-03 20:24 | 36.12936 | -95.59553 | 10431 ft | 313 kts | 103° |
| 2026-05-03 20:24 | 36.12453 | -95.56826 | 10726 ft | 338 kts | 103° |
| 2026-05-03 20:24 | 36.11931 | -95.53895 | 11068 ft | 356 kts | 103° |
| 2026-05-03 20:25 | 36.11395 | -95.50879 | 11791 ft | 361 kts | 103° |
| 2026-05-03 20:25 | 36.10849 | -95.47812 | 12552 ft | 367 kts | 102° |
| 2026-05-03 20:25 | 36.10296 | -95.44707 | 13382 ft | 371 kts | 102° |
| 2026-05-03 20:25 | 36.09737 | -95.41572 | 14193 ft | 375 kts | 102° |
| 2026-05-03 20:26 | 36.09169 | -95.38407 | 14954 ft | 379 kts | 102° |
| 2026-05-03 20:26 | 36.08593 | -95.35203 | 15739 ft | 384 kts | 102° |
| 2026-05-03 20:26 | 36.08011 | -95.31964 | 16513 ft | 388 kts | 102° |
| 2026-05-03 20:26 | 36.07419 | -95.28684 | 17280 ft | 393 kts | 102° |
| 2026-05-03 20:27 | 36.06820 | -95.25365 | 18035 ft | 397 kts | 102° |
| 2026-05-03 20:27 | 36.06220 | -95.22046 | 18695 ft | 402 kts | 102° |
| 2026-05-03 20:27 | 36.05607 | -95.18657 | 19338 ft | 407 kts | 102° |
| 2026-05-03 20:27 | 36.04985 | -95.15227 | 19970 ft | 411 kts | 102° |
| 2026-05-03 20:28 | 36.04356 | -95.11763 | 20594 ft | 415 kts | 101° |
| 2026-05-03 20:28 | 36.03720 | -95.08269 | 21215 ft | 419 kts | 101° |
| 2026-05-03 20:28 | 36.03074 | -95.04734 | 21807 ft | 424 kts | 102° |
| 2026-05-03 20:28 | 36.02140 | -95.01254 | 22379 ft | 430 kts | 114° |
| 2026-05-03 20:29 | 36.00643 | -94.98033 | 22987 ft | 434 kts | 126° |
| 2026-05-03 20:29 | 35.98667 | -94.95208 | 23568 ft | 437 kts | 137° |
| 2026-05-03 20:29 | 35.96447 | -94.92627 | 24052 ft | 441 kts | 139° |
| 2026-05-03 20:29 | 35.94163 | -94.90066 | 24501 ft | 445 kts | 139° |
| 2026-05-03 20:30 | 35.91857 | -94.87496 | 24958 ft | 449 kts | 139° |
| 2026-05-03 20:30 | 35.89523 | -94.84881 | 25412 ft | 453 kts | 139° |
| 2026-05-03 20:30 | 35.87189 | -94.82243 | 25867 ft | 457 kts | 139° |
| 2026-05-03 20:30 | 35.84875 | -94.79610 | 26299 ft | 460 kts | 138° |
| 2026-05-03 20:31 | 35.82487 | -94.76880 | 26743 ft | 464 kts | 138° |
| 2026-05-03 20:31 | 35.80144 | -94.74197 | 27154 ft | 467 kts | 138° |
| 2026-05-03 20:31 | 35.77748 | -94.71452 | 27563 ft | 471 kts | 138° |
| 2026-05-03 20:31 | 35.75335 | -94.68691 | 27963 ft | 475 kts | 138° |
| 2026-05-03 20:32 | 35.73727 | -94.66853 | 28220 ft | 477 kts | 138° |
| 2026-05-03 20:32 | 35.70460 | -94.63122 | 28736 ft | 482 kts | 138° |
| 2026-05-03 20:32 | 35.68822 | -94.61252 | 28987 ft | 484 kts | 138° |
| 2026-05-03 20:32 | 35.66347 | -94.58433 | 29355 ft | 487 kts | 138° |
| 2026-05-03 20:33 | 35.63039 | -94.54666 | 29939 ft | 489 kts | 139° |
| 2026-05-03 20:33 | 35.61356 | -94.52751 | 30274 ft | 488 kts | 139° |
| 2026-05-03 20:33 | 35.58058 | -94.49003 | 30907 ft | 486 kts | 139° |
| 2026-05-03 20:33 | 35.55574 | -94.46182 | 31024 ft | 488 kts | 139° |
| 2026-05-03 20:34 | 35.53924 | -94.44311 | 31026 ft | 487 kts | 139° |
| 2026-05-03 20:34 | 35.48948 | -94.38671 | 31042 ft | 486 kts | 139° |
| 2026-05-03 20:35 | 35.43980 | -94.33050 | 31040 ft | 486 kts | 139° |
| 2026-05-03 20:35 | 35.39334 | -94.27025 | 31034 ft | 487 kts | 126° |
| 2026-05-03 20:36 | 35.34572 | -94.09146 | 31047 ft | 479 kts | 89° |
| 2026-05-03 20:36 | 35.33381 | -93.76653 | 31034 ft | 481 kts | 90° |
| 2026-05-03 20:37 | 35.31700 | -93.43873 | 31044 ft | 480 kts | 90° |
| 2026-05-03 20:37 | 35.28792 | -92.89085 | 31073 ft | 479 kts | 91° |
| 2026-05-03 20:38 | 35.27216 | -92.61660 | 31072 ft | 479 kts | 91° |
| 2026-05-03 20:38 | 35.25677 | -92.36027 | 29775 ft | 479 kts | 91° |
| 2026-05-03 20:38 | 35.23717 | -92.03598 | 27748 ft | 470 kts | 91° |
| 2026-05-03 20:38 | 35.21697 | -91.72595 | 25681 ft | 445 kts | 92° |
| 2026-05-03 20:39 | 35.19721 | -91.43189 | 23797 ft | 424 kts | 92° |
| 2026-05-03 20:39 | 35.17791 | -91.15402 | 20859 ft | 397 kts | 92° |
| 2026-05-03 20:39 | 35.15942 | -90.89470 | 17100 ft | 379 kts | 92° |
| 2026-05-03 20:39 | 35.14106 | -90.64222 | 13261 ft | 352 kts | 93° |
| 2026-05-03 20:40 | 35.12422 | -90.41967 | 8467 ft | 322 kts | 94° |
| 2026-05-03 20:40 | 35.10831 | -90.20558 | 3293 ft | 304 kts | 97° |
| 2026-05-03 20:40 | 35.11565 | -90.07873 | 2715 ft | 260 kts | 46° |
| 2026-05-03 20:40 | 35.12991 | -90.06594 | 2985 ft | 254 kts | 32° |
| 2026-05-03 20:41 | 35.14547 | -90.05404 | 3260 ft | 270 kts | 31° |
| 2026-05-03 20:41 | 35.16145 | -90.04198 | 3525 ft | 272 kts | 31° |
| 2026-05-03 20:41 | 35.17754 | -90.02983 | 3763 ft | 269 kts | 31° |
| 2026-05-03 20:41 | 35.19275 | -90.01569 | 3191 ft | 280 kts | 53° |
| 2026-05-03 20:42 | 35.19960 | -89.99500 | 3078 ft | 252 kts | 89° |
| 2026-05-03 20:42 | 35.19565 | -89.97582 | 2908 ft | 230 kts | 127° |
| 2026-05-03 20:42 | 35.18390 | -89.96501 | 2779 ft | 200 kts | 168° |
| 2026-05-03 20:42 | 35.17083 | -89.96688 | 2522 ft | 187 kts | 210° |
| 2026-05-03 20:43 | 35.15990 | -89.97470 | 2265 ft | 179 kts | 202° |
| 2026-05-03 20:43 | 35.14848 | -89.97686 | 2090 ft | 169 kts | 182° |
| 2026-05-03 20:43 | 35.13699 | -89.97807 | 1729 ft | 165 kts | 188° |
| 2026-05-03 20:43 | 35.12580 | -89.97845 | 1558 ft | 154 kts | 177° |
| 2026-05-03 20:44 | 35.11624 | -89.97713 | 1580 ft | 127 kts | 180° |
| 2026-05-03 20:44 | 35.10763 | -89.97713 | 1522 ft | 124 kts | 185° |
| 2026-05-03 20:44 | 35.09891 | -89.97699 | 1339 ft | 125 kts | 184° |
| 2026-05-03 20:44 | 35.09047 | -89.97681 | 1174 ft | 118 kts | 182° |
| 2026-05-03 20:45 | 35.08213 | -89.97663 | 988 ft | 121 kts | 182° |
| 2026-05-03 20:45 | 35.07369 | -89.97650 | 838 ft | 125 kts | 182° |
| 2026-05-03 20:45 | 35.06500 | -89.97633 | 618 ft | 125 kts | 182° |
| 2026-05-03 20:45 | 35.05634 | -89.97621 | 408 ft | 125 kts | 184° |
| 2026-05-03 20:46 | 35.04825 | -89.97610 | 324 ft | 102 kts | 184° |
| 2026-05-03 20:46 | 35.04267 | -89.97595 | 321 ft | 37 kts | 177° |
| 2026-05-03 20:46 | 35.04194 | -89.97507 | 325 ft | 12 kts | 78° |
| 2026-05-03 20:46 | 35.04233 | -89.97459 | 328 ft | 11 kts | 11° |
| 2026-05-03 20:47 | 35.04241 | -89.97458 | 326 ft | 0 kts | 1° |